Terminal Aerodrome Forecast
Issued by NWS

Home | Current Version | Previous Version | Text Only | Print | Product List | Glossary On
Versions: 1 2 3 4 5 6 7 8 9 10 11 12 13 14 15
000
FTUS44 KEPZ 211923 AAA
TAFLRU
TAF AMD
KLRU 211923Z 2119/2218 27035G49KT P6SM VCSH SCT050 BKN120
     FM212300 27032G40KT P6SM SCT050
     FM220400 28017G25KT P6SM SKC
     FM221200 28012KT P6SM FEW150=

USA.gov is the U.S. government's official web portal to all federal, state and local government web resources and services.